»·PEaware :: ASA1971 KSAN-KSFO

ASA1971 :: KSAN-KSFO

FLIGHT INFORMATION

Flight Status: Arrived
Operator:
Alaska Airlines
More flights by this operator :: More flights under this callsign
Pilot: Justin S. (10202)
Aircraft: AIRBUS A320
(A320)
More flights by this aircraft type
Origin: KSAN San Diego Intl-Lindbergh
United States
Destination: KSFO San Francisco Intl
United States
More flights between these airports :: More routes between these airports
Route: +PADRZ2 IKAYE RIZIN SPLNT STOKD SERFR SERFR3
File this flight plan on PilotEdge
Remarks:
Altitude:
(Current/Filed)
36,000ft
Speed:
(Current/Filed)
450kts
Departed: 03-Aug-18 08:55 PM
Arrived: 03-Aug-18 09:59 PM
Distance/Time
Traveled:
388nm/1:04
Distance/Time
To Go:
Arrived

Flight Plot

Page will automatically refresh every two minutes.

Flight plan parsing failed; only flown route is shown


Map Options




Map Legend


Flown Route
Filed Route
Departure Airport
Arrival Airport
Navaid (VOR, NDB)
Fix

Horizontal Profiles

Position Reports

Time Latitude Longitude Heading Altitude Ground
Speed
03-Aug-18 20:35 32.733470 -117.200560 264 29ft 0kts
03-Aug-18 20:36 32.733470 -117.200560 264 29ft 0kts
03-Aug-18 20:37 32.733470 -117.200560 264 29ft 0kts
03-Aug-18 20:38 32.733470 -117.200560 264 29ft 0kts
03-Aug-18 20:39 32.733470 -117.200560 264 29ft 0kts
03-Aug-18 20:40 32.733470 -117.200560 264 29ft 0kts
03-Aug-18 20:41 32.733470 -117.200560 264 29ft 0kts
03-Aug-18 20:42 32.733553 -117.200100 258 29ft 2kts
03-Aug-18 20:43 32.733460 -117.199484 317 29ft 1kts
03-Aug-18 20:44 32.733460 -117.199484 317 29ft 0kts
03-Aug-18 20:45 32.733460 -117.199484 317 29ft 0kts
03-Aug-18 20:46 32.733460 -117.199484 317 29ft 0kts
03-Aug-18 20:47 32.733461 -117.199485 317 29ft 0kts
03-Aug-18 20:48 32.733461 -117.199485 317 29ft 0kts
03-Aug-18 20:49 32.733618 -117.199644 325 29ft 2kts
03-Aug-18 20:50 32.734169 -117.199667 13 29ft 0kts
03-Aug-18 20:51 32.734723 -117.198758 104 29ft 13kts
03-Aug-18 20:52 32.733190 -117.192374 106 29ft 21kts
03-Aug-18 20:53 32.731438 -117.185169 106 29ft 23kts
03-Aug-18 20:54 32.729844 -117.178568 106 29ft 13kts
03-Aug-18 20:55 32.730151 -117.175546 286 29ft 3kts
03-Aug-18 20:56 32.735978 -117.199452 286 363ft 167kts
03-Aug-18 20:57 32.761598 -117.250326 302 2627ft 204kts
03-Aug-18 20:58 32.798145 -117.315945 305 4285ft 268kts
03-Aug-18 20:59 32.845036 -117.388624 307 6985ft 282kts
03-Aug-18 21:00 32.893704 -117.464307 307 9437ft 293kts
03-Aug-18 21:01 32.945490 -117.544955 307 11119ft 331kts
03-Aug-18 21:02 33.005542 -117.638652 307 12422ft 373kts
03-Aug-18 21:03 33.070825 -117.736802 316 14555ft 382kts
03-Aug-18 21:04 33.152880 -117.819859 319 16420ft 393kts
03-Aug-18 21:05 33.234176 -117.909660 314 18141ft 403kts
03-Aug-18 21:06 33.314717 -118.006047 314 19693ft 413kts
03-Aug-18 21:07 33.396996 -118.104513 314 21098ft 423kts
03-Aug-18 21:08 33.480955 -118.205288 314 22380ft 432kts
03-Aug-18 21:09 33.566825 -118.308619 314 23577ft 441kts
03-Aug-18 21:10 33.654134 -118.414054 314 24751ft 448kts
03-Aug-18 21:11 33.742218 -118.520656 313 25808ft 455kts
03-Aug-18 21:12 33.832247 -118.630096 313 26844ft 461kts
03-Aug-18 21:13 33.922487 -118.740014 313 27871ft 464kts
03-Aug-18 21:14 34.013212 -118.850948 313 29176ft 459kts
03-Aug-18 21:15 34.101212 -118.958857 312 30773ft 448kts
03-Aug-18 21:16 34.177449 -119.075602 299 31931ft 439kts
03-Aug-18 21:17 34.241269 -119.201167 300 31942ft 439kts
03-Aug-18 21:18 34.305840 -119.326557 299 31949ft 439kts
03-Aug-18 21:19 34.370065 -119.452143 299 31956ft 439kts
03-Aug-18 21:20 34.441839 -119.571409 311 31947ft 443kts
03-Aug-18 21:21 34.529254 -119.677396 311 31941ft 443kts
03-Aug-18 21:22 34.615304 -119.784053 311 31966ft 442kts
03-Aug-18 21:23 34.701587 -119.890778 311 31990ft 442kts
03-Aug-18 21:24 34.787447 -119.997371 311 32007ft 441kts
03-Aug-18 21:25 34.873270 -120.104315 311 32016ft 440kts
03-Aug-18 21:26 34.958620 -120.211005 310 32030ft 439kts
03-Aug-18 21:27 35.043905 -120.317906 310 32030ft 439kts
03-Aug-18 21:28 35.131360 -120.421947 313 32028ft 440kts
03-Aug-18 21:29 35.221593 -120.522830 313 32018ft 439kts
03-Aug-18 21:30 35.311692 -120.624150 313 32008ft 438kts
03-Aug-18 21:31 35.401334 -120.725334 313 31961ft 439kts
03-Aug-18 21:32 35.491965 -120.826112 317 32004ft 441kts
03-Aug-18 21:33 35.590021 -120.916889 318 31979ft 442kts
03-Aug-18 21:34 35.688009 -121.008247 317 32004ft 442kts
03-Aug-18 21:35 35.785876 -121.099460 317 32003ft 441kts
03-Aug-18 21:36 35.883895 -121.191260 317 31947ft 442kts
03-Aug-18 21:37 35.981536 -121.282892 317 31973ft 441kts
03-Aug-18 21:38 36.079864 -121.373765 320 32018ft 443kts
03-Aug-18 21:39 36.183772 -121.454482 321 31309ft 436kts
03-Aug-18 21:40 36.286740 -121.535157 322 28277ft 436kts
03-Aug-18 21:41 36.388195 -121.614724 323 25703ft 427kts
03-Aug-18 21:42 36.487077 -121.692623 323 23301ft 414kts
03-Aug-18 21:43 36.580245 -121.766206 323 21409ft 387kts
03-Aug-18 21:44 36.669845 -121.837188 323 19320ft 378kts
03-Aug-18 21:45 36.760678 -121.900375 341 17419ft 377kts
03-Aug-18 21:46 36.861278 -121.927302 344 15600ft 360kts
03-Aug-18 21:47 36.957986 -121.955457 341 13770ft 352kts
03-Aug-18 21:48 37.049144 -121.990967 340 11933ft 336kts
03-Aug-18 21:49 37.134308 -122.024190 341 10872ft 297kts
03-Aug-18 21:50 37.212041 -122.054653 341 9187ft 288kts
03-Aug-18 21:51 37.287222 -122.084134 341 7865ft 269kts
03-Aug-18 21:52 37.356502 -122.112123 341 6699ft 237kts
03-Aug-18 21:53 37.415609 -122.133073 343 5699ft 212kts
03-Aug-18 21:54 37.471576 -122.152340 342 4399ft 206kts
03-Aug-18 21:55 37.526387 -122.171497 335 3162ft 198kts
03-Aug-18 21:56 37.555343 -122.225135 298 2369ft 178kts
03-Aug-18 21:57 37.576919 -122.275290 298 1591ft 155kts
03-Aug-18 21:58 37.594789 -122.317821 298 800ft 124kts
03-Aug-18 21:59 37.610851 -122.356237 298 132ft 123kts
03-Aug-18 22:00 37.618968 -122.377458 268 27ft 7kts
03-Aug-18 22:01 37.618911 -122.378796 257 27ft 7kts
03-Aug-18 22:02 37.616685 -122.379572 202 27ft 9kts
03-Aug-18 22:03 37.616751 -122.380533 301 27ft 0kts
03-Aug-18 22:04 37.616751 -122.380533 301 27ft 0kts
03-Aug-18 22:05 37.616751 -122.380533 301 27ft 0kts

Navigation Log

Ident Type
Flight plan parsing failed, navigation log unavailable